Time;durP1;ratioP1;P1;durP2;ratioP2;P2;SDS_P1;SDS_P2;PMS_P1;PMS_P2;Temp;Humidity;BMP_temperature;BMP_pressure;BME280_temperature;BME280_humidity;BME280_pressure;Samples;Min_cycle;Max_cycle;Signal;HPM_P1;HPM_P2
2022/07/21 00:00:23;;;;;;;10.32;7.90;;;;;;;16.41;65.46;97588.85;1832128;78;25497;-78
2022/07/21 00:02:53;;;;;;;14.18;7.78;;;;;;;16.33;65.53;97584.61;1832223;78;25750;-79
2022/07/21 00:05:20;;;;;;;12.15;7.65;;;;;;;16.30;65.61;97578.84;1812439;78;25776;-80
2022/07/21 00:07:47;;;;;;;10.80;7.85;;;;;;;16.26;65.72;97581.22;1811824;79;25727;-77
2022/07/21 00:10:16;;;;;;;11.33;8.40;;;;;;;16.23;65.80;97580.86;1811643;79;27464;-77
2022/07/21 00:12:43;;;;;;;11.40;8.60;;;;;;;16.18;65.88;97575.59;1811555;79;25760;-78
2022/07/21 00:15:11;;;;;;;11.00;7.70;;;;;;;16.14;66.00;97582.63;1811572;79;25732;-79
2022/07/21 00:17:38;;;;;;;12.03;8.00;;;;;;;16.09;66.04;97578.42;1811762;79;25823;-78
2022/07/21 00:20:08;;;;;;;12.53;8.20;;;;;;;16.05;66.12;97581.36;1811725;79;25629;-78
2022/07/21 00:22:35;;;;;;;13.32;8.65;;;;;;;16.00;66.20;97576.33;1811594;78;28225;-80
2022/07/21 00:25:02;;;;;;;10.20;7.50;;;;;;;15.92;66.32;97569.37;1811302;79;25277;-77
2022/07/21 00:27:29;;;;;;;11.93;8.03;;;;;;;15.83;66.46;97568.08;1811658;79;25704;-78
2022/07/21 00:29:55;;;;;;;9.95;6.95;;;;;;;15.82;66.65;97570.51;1811764;79;25711;-78
2022/07/21 00:32:22;;;;;;;8.90;7.42;;;;;;;15.83;66.73;97577.61;1811782;79;25396;-78
2022/07/21 00:34:48;;;;;;;12.50;7.45;;;;;;;15.82;66.70;97580.86;1811791;79;27521;-80
2022/07/21 00:37:15;;;;;;;10.68;7.42;;;;;;;15.79;66.76;97580.54;1811456;78;25681;-78
2022/07/21 00:39:41;;;;;;;9.93;7.70;;;;;;;15.76;66.86;97582.38;1811782;79;25730;-78
2022/07/21 00:42:08;;;;;;;14.18;7.70;;;;;;;15.73;67.03;97589.11;1811675;79;25680;-78
2022/07/21 00:44:34;;;;;;;8.73;6.90;;;;;;;15.71;67.04;97591.24;1811815;78;25633;-77
2022/07/21 00:47:01;;;;;;;8.75;7.28;;;;;;;15.69;66.94;97592.58;1811694;78;27342;-78
2022/07/21 00:49:27;;;;;;;10.25;7.70;;;;;;;15.65;66.86;97590.03;1811670;79;25648;-80
2022/07/21 00:51:54;;;;;;;8.70;7.50;;;;;;;15.63;66.94;97583.98;1811654;79;25646;-78
2022/07/21 00:54:20;;;;;;;9.58;7.28;;;;;;;15.61;67.07;97582.03;1811709;78;25704;-78
2022/07/21 00:56:47;;;;;;;11.57;7.78;;;;;;;15.58;67.11;97586.05;1811686;79;25622;-80
2022/07/21 00:59:15;;;;;;;10.00;7.60;;;;;;;15.55;67.21;97582.48;1811723;79;27363;-78
2022/07/21 01:01:42;;;;;;;7.58;6.62;;;;;;;15.50;67.28;97587.23;1811500;79;25752;-77
2022/07/21 01:04:09;;;;;;;7.37;6.58;;;;;;;15.47;67.36;97593.67;1811553;78;25938;-77
2022/07/21 01:06:35;;;;;;;12.43;7.65;;;;;;;15.42;67.28;97597.66;1811369;79;25715;-79
2022/07/21 01:09:02;;;;;;;10.28;7.70;;;;;;;15.38;67.36;97597.29;1811790;79;25219;-78
2022/07/21 01:11:30;;;;;;;9.60;7.33;;;;;;;15.35;67.47;97606.45;1811576;79;27398;-77
2022/07/21 01:13:56;;;;;;;11.30;7.58;;;;;;;15.31;67.50;97604.75;1811694;79;25819;-78
2022/07/21 01:16:23;;;;;;;9.28;7.08;;;;;;;15.28;67.55;97600.31;1811594;78;25729;-80
2022/07/21 01:18:52;;;;;;;13.65;7.22;;;;;;;15.26;67.61;97605.98;1811770;78;25713;-78
2022/07/21 01:21:34;;;;;;;10.95;7.30;;;;;;;15.20;67.62;97602.86;1811634;78;25721;-77
2022/07/21 01:24:03;;;;;;;;;;;;;;;15.16;67.66;97603.02;1814068;79;27458;-78
2022/07/21 01:26:30;;;;;;;8.20;6.70;;;;;;;15.11;68.28;97600.17;1811366;79;25794;-77
2022/07/21 01:28:57;;;;;;;7.83;6.60;;;;;;;15.07;67.99;97602.55;1811424;79;25816;-77
2022/07/21 01:31:24;;;;;;;7.65;6.40;;;;;;;15.06;67.93;97599.54;1811588;79;25774;-76
2022/07/21 01:33:51;;;;;;;11.95;7.25;;;;;;;15.07;68.07;97596.29;1811738;79;25733;-78
2022/07/21 01:36:18;;;;;;;10.05;6.60;;;;;;;15.08;68.07;97602.02;1811693;79;27410;-77
2022/07/21 01:41:29;;;;;;;11.97;7.55;;;;;;;15.04;68.28;97601.66;1844730;77;25735;-78
2022/07/21 01:44:06;;;;;;;9.90;7.17;;;;;;;15.00;68.33;97602.34;1844643;76;25763;-77
2022/07/21 01:46:37;;;;;;;9.33;7.12;;;;;;;14.99;68.45;97606.95;1797909;79;25854;-78
2022/07/21 01:49:06;;;;;;;7.95;6.90;;;;;;;14.99;68.47;97610.20;1798171;79;27365;-78
2022/07/21 01:51:33;;;;;;;8.73;7.00;;;;;;;14.95;68.50;97607.15;1798102;79;25799;-78
2022/07/21 01:54:00;;;;;;;10.53;7.03;;;;;;;14.93;68.61;97603.00;1798108;79;25298;-78
2022/07/21 01:56:27;;;;;;;8.95;6.37;;;;;;;14.90;68.55;97607.01;1798105;79;25856;-79
2022/07/21 01:58:56;;;;;;;9.15;6.08;;;;;;;14.87;68.56;97606.64;1798223;79;25503;-78
2022/07/21 02:01:28;;;;;;;12.37;6.90;;;;;;;14.86;68.63;97607.70;1798281;79;28055;-78
2022/07/21 02:03:56;;;;;;;;;;;;;;;14.83;68.68;97604.95;1799387;79;25400;-77
2022/07/21 02:06:23;;;;;;;9.13;6.72;;;;;;;14.79;68.96;97599.67;1784192;80;25708;-77
2022/07/21 02:08:50;;;;;;;7.70;6.90;;;;;;;14.73;68.71;97603.33;1784235;80;26302;-78
2022/07/21 02:11:18;;;;;;;8.13;6.85;;;;;;;14.69;68.76;97598.05;1784158;80;26437;-78
2022/07/21 02:13:46;;;;;;;9.35;6.65;;;;;;;14.65;68.74;97599.05;1784262;80;27370;-77
2022/07/21 02:16:12;;;;;;;8.93;5.78;;;;;;;14.62;68.78;97596.78;1784121;80;25763;-78
2022/07/21 02:18:39;;;;;;;6.78;6.08;;;;;;;14.58;68.92;97604.28;1765731;80;25782;-78
2022/07/21 02:21:06;;;;;;;7.95;6.40;;;;;;;14.56;68.95;97607.76;1764726;81;26537;-78
2022/07/21 02:23:34;;;;;;;8.08;5.70;;;;;;;14.53;68.98;97605.50;1764636;81;25568;-78
2022/07/21 02:26:00;;;;;;;9.58;6.22;;;;;;;14.49;68.95;97600.25;1764992;81;27444;-81
2022/07/21 02:28:27;;;;;;;8.18;5.90;;;;;;;14.47;69.01;97605.91;1764961;81;25679;-78
2022/07/21 02:30:54;;;;;;;8.95;6.03;;;;;;;14.44;69.10;97599.58;1764864;80;25748;-78
2022/07/21 02:33:21;;;;;;;7.20;6.05;;;;;;;14.39;69.23;97600.25;1764920;81;26648;-77
2022/07/21 02:35:47;;;;;;;8.20;5.97;;;;;;;14.41;69.32;97602.74;1764906;81;25834;-77
2022/07/21 02:38:14;;;;;;;8.58;6.53;;;;;;;14.41;69.42;97598.67;1765171;81;28157;-78
2022/07/21 02:40:40;;;;;;;8.35;6.45;;;;;;;14.40;69.50;97595.66;1764974;81;25694;-80
2022/07/21 02:43:07;;;;;;;9.43;6.83;;;;;;;14.39;69.51;97592.11;1781955;79;25842;-78
2022/07/21 02:45:36;;;;;;;9.15;7.20;;;;;;;14.37;69.52;97592.00;1803768;79;26502;-79
2022/07/21 02:48:10;;;;;;;8.95;6.28;;;;;;;14.34;69.59;97589.77;1803959;79;25768;-78
2022/07/21 02:50:40;;;;;;;8.28;5.60;;;;;;;14.32;69.63;97587.28;1803753;79;27415;-77
2022/07/21 02:53:13;;;;;;;8.73;5.90;;;;;;;14.29;69.48;97585.55;1803633;79;25649;-78
2022/07/21 02:55:41;;;;;;;8.23;7.12;;;;;;;14.26;69.51;97586.00;1804237;79;25660;-78
2022/07/21 02:58:14;;;;;;;8.58;6.40;;;;;;;14.22;69.70;97579.39;1803397;79;25760;-77
2022/07/21 03:00:55;;;;;;;8.23;6.33;;;;;;;14.21;69.78;97576.38;1803761;79;25684;-78
2022/07/21 03:03:26;;;;;;;9.05;6.67;;;;;;;14.20;69.88;97576.08;1762938;81;27599;-78
2022/07/21 03:05:53;;;;;;;9.18;6.33;;;;;;;14.19;69.89;97571.70;1752073;81;25354;-79
2022/07/21 03:08:21;;;;;;;7.92;6.35;;;;;;;14.17;69.86;97565.14;1749289;82;25825;-80
2022/07/21 03:10:48;;;;;;;10.38;6.45;;;;;;;14.17;69.92;97564.31;1749273;81;25777;-78
2022/07/21 03:13:15;;;;;;;9.78;6.22;;;;;;;14.15;70.04;97567.78;1748977;82;25727;-80
2022/07/21 03:15:41;;;;;;;11.48;7.10;;;;;;;14.11;70.14;97571.50;1749213;81;27362;-77
2022/07/21 03:18:08;;;;;;;8.23;6.97;;;;;;;14.01;70.24;97574.74;1749061;82;25754;-78
2022/07/21 03:20:38;;;;;;;8.35;6.87;;;;;;;14.01;70.43;97573.91;1749291;82;25907;-79
2022/07/21 03:23:05;;;;;;;8.18;6.40;;;;;;;14.02;70.53;97561.47;1748932;81;25789;-78
2022/07/21 03:25:32;;;;;;;9.13;7.30;;;;;;;14.05;70.68;97564.27;1749004;81;25734;-80
2022/07/21 03:27:59;;;;;;;9.48;7.53;;;;;;;14.05;70.71;97564.27;1749174;81;27375;-78
2022/07/21 03:30:26;;;;;;;10.00;6.60;;;;;;;14.06;70.64;97560.50;1748901;81;25906;-79
2022/07/21 03:32:53;;;;;;;10.25;6.75;;;;;;;14.04;70.66;97570.22;1749154;81;25985;-77
2022/07/21 03:35:20;;;;;;;7.35;6.33;;;;;;;14.05;70.70;97566.98;1749373;81;26517;-78
2022/07/21 03:37:53;;;;;;;8.38;6.70;;;;;;;14.04;70.81;97570.22;1749216;81;25797;-80
2022/07/21 03:40:24;;;;;;;7.87;6.55;;;;;;;14.04;70.81;97562.08;1749074;81;45663;-78
2022/07/21 03:42:54;;;;;;;8.78;6.28;;;;;;;14.04;70.81;97563.44;1748781;81;25895;-78
2022/07/21 03:45:21;;;;;;;8.10;6.35;;;;;;;14.04;70.84;97566.16;1719169;83;25874;-78
2022/07/21 03:47:48;;;;;;;9.98;6.33;;;;;;;14.05;70.88;97574.59;1719301;83;25918;-78
2022/07/21 03:50:17;;;;;;;9.95;6.60;;;;;;;14.06;70.97;97574.89;1719409;83;25778;-77
2022/07/21 03:52:44;;;;;;;9.25;6.53;;;;;;;14.07;71.04;97577.09;1719069;83;28482;-80
2022/07/21 03:55:14;;;;;;;7.72;6.87;;;;;;;14.08;71.08;97571.95;1718974;83;25811;-78
2022/07/21 03:57:44;;;;;;;9.10;6.28;;;;;;;14.11;71.13;97563.89;1718949;83;25817;-80
2022/07/21 04:00:16;;;;;;;10.10;7.05;;;;;;;14.11;71.24;97566.61;1752316;80;26535;-77
2022/07/21 04:02:43;;;;;;;9.25;6.30;;;;;;;14.14;71.33;97570.20;1720664;83;25792;-77
2022/07/21 04:05:12;;;;;;;13.62;7.62;;;;;;;14.16;71.38;97568.08;1728614;82;27458;-79
2022/07/21 04:07:42;;;;;;;10.93;7.33;;;;;;;14.17;71.39;97561.59;1679319;85;25822;-78
2022/07/21 04:10:11;;;;;;;11.05;7.65;;;;;;;14.20;71.42;97560.62;1632089;87;25807;-76
2022/07/21 04:12:38;;;;;;;9.40;7.45;;;;;;;14.22;71.66;97556.31;1632299;86;26373;-77
2022/07/21 04:15:07;;;;;;;11.25;7.90;;;;;;;14.24;71.70;97566.42;1632309;87;25847;-75
2022/07/21 04:17:34;;;;;;;9.70;7.75;;;;;;;14.29;71.77;97561.11;1632140;87;27471;-75
2022/07/21 04:20:02;;;;;;;10.32;7.28;;;;;;;14.32;71.85;97560.13;1632029;86;25769;-76
2022/07/21 04:22:28;;;;;;;10.20;8.08;;;;;;;14.35;71.90;97558.84;1632336;87;25921;-76
2022/07/21 04:24:55;;;;;;;19.82;16.00;;;;;;;14.41;71.99;97563.37;1632155;87;25924;-77
2022/07/21 04:27:21;;;;;;;20.62;15.30;;;;;;;14.46;72.04;97566.76;1632279;87;25738;-76
2022/07/21 04:29:48;;;;;;;18.37;13.55;;;;;;;14.51;72.06;97566.87;1632164;87;27380;-76
2022/07/21 04:32:14;;;;;;;16.40;11.03;;;;;;;14.56;72.09;97571.92;1632136;87;25801;-76
2022/07/21 04:34:41;;;;;;;15.18;10.43;;;;;;;14.61;72.17;97569.31;1632238;87;25769;-76
2022/07/21 04:37:07;;;;;;;18.52;10.43;;;;;;;14.66;72.40;97574.06;1632227;87;25749;-75
2022/07/21 04:39:34;;;;;;;14.68;9.28;;;;;;;14.70;72.24;97571.19;1632204;87;25508;-76
2022/07/21 04:42:01;;;;;;;11.22;8.90;;;;;;;14.76;72.26;97566.16;1624599;87;27380;-77
2022/07/21 04:44:27;;;;;;;11.10;8.20;;;;;;;14.85;72.24;97573.46;1613251;88;25325;-76
2022/07/21 04:46:54;;;;;;;14.73;9.33;;;;;;;14.92;72.38;97571.45;1613443;88;25823;-75
2022/07/21 04:49:20;;;;;;;15.50;9.10;;;;;;;14.99;72.33;97566.71;1613314;88;26454;-76
2022/07/21 04:51:47;;;;;;;11.50;9.60;;;;;;;15.04;72.47;97566.31;1613515;88;25863;-77
2022/07/21 04:54:13;;;;;;;15.15;8.33;;;;;;;15.10;72.41;97568.61;1613396;88;28230;-76
2022/07/21 04:56:42;;;;;;;12.35;9.40;;;;;;;15.16;72.38;97560.05;1613041;88;25735;-76
2022/07/21 04:59:09;;;;;;;13.50;9.03;;;;;;;15.22;72.46;97565.36;1613141;88;25853;-76
2022/07/21 05:01:36;;;;;;;16.17;8.33;;;;;;;15.29;72.56;97566.08;1613316;88;25761;-76
2022/07/21 05:04:04;;;;;;;16.00;9.10;;;;;;;15.36;72.52;97562.69;1625474;86;25764;-76
2022/07/21 05:06:32;;;;;;;12.35;9.18;;;;;;;15.43;72.45;97556.61;1736332;77;26665;-77
2022/07/21 05:08:59;;;;;;;10.68;8.90;;;;;;;15.53;72.38;97561.97;1850664;77;25846;-75
2022/07/21 05:11:26;;;;;;;13.65;9.33;;;;;;;15.61;72.38;97558.91;1850636;77;25672;-76
2022/07/21 05:13:52;;;;;;;12.90;9.00;;;;;;;15.68;72.40;97556.90;1850698;77;26696;-76
2022/07/21 05:16:19;;;;;;;20.57;9.55;;;;;;;15.78;72.32;97551.66;1850660;77;25839;-76
2022/07/21 05:18:46;;;;;;;13.45;8.70;;;;;;;15.87;72.17;97550.21;1850601;77;28052;-76
2022/07/21 05:21:12;;;;;;;16.35;9.68;;;;;;;15.96;72.13;97547.39;1850623;77;25700;-76
2022/07/21 05:23:39;;;;;;;12.33;8.90;;;;;;;16.04;72.10;97552.47;1850844;77;25673;-75
2022/07/21 05:26:05;;;;;;;15.60;9.98;;;;;;;16.11;72.20;97551.78;1850708;77;25704;-78
2022/07/21 05:28:32;;;;;;;18.95;9.25;;;;;;;16.19;72.22;97543.21;1850722;77;25752;-76
2022/07/21 05:30:59;;;;;;;11.33;8.88;;;;;;;16.30;72.14;97543.43;1850381;77;27353;-75
2022/07/21 05:33:25;;;;;;;12.33;9.50;;;;;;;16.39;72.22;97543.31;1850861;77;25135;-75
2022/07/21 05:35:52;;;;;;;12.15;9.00;;;;;;;16.48;72.16;97540.47;1850778;76;25713;-77
2022/07/21 05:38:18;;;;;;;16.65;10.13;;;;;;;16.57;71.78;97540.35;1850726;77;25660;-76
2022/07/21 05:40:45;;;;;;;17.60;10.68;;;;;;;16.68;71.51;97549.02;1850320;77;25672;-76
2022/07/21 05:43:12;;;;;;;17.70;9.90;;;;;;;16.76;71.24;97545.91;1850471;77;27385;-75
2022/07/21 05:45:38;;;;;;;21.75;11.08;;;;;;;16.85;71.05;97547.14;1850596;77;26482;-76
2022/07/21 05:48:05;;;;;;;16.02;10.55;;;;;;;16.97;70.81;97547.59;1850677;77;25724;-76
2022/07/21 05:50:32;;;;;;;15.75;9.95;;;;;;;17.06;70.60;97551.55;1850675;77;26411;-76
2022/07/21 05:52:58;;;;;;;21.68;10.25;;;;;;;17.17;70.41;97545.17;1850687;77;25388;-76
2022/07/21 05:55:25;;;;;;;17.23;10.55;;;;;;;17.27;70.08;97546.14;1850677;77;27348;-78
2022/07/21 05:57:51;;;;;;;20.20;11.80;;;;;;;17.38;69.88;97541.69;1850500;77;25614;-75
2022/07/21 06:00:18;;;;;;;17.05;10.55;;;;;;;17.49;69.87;97548.94;1850681;77;25686;-77
2022/07/21 06:02:45;;;;;;;16.95;10.08;;;;;;;17.61;69.74;97550.19;1850787;77;25503;-76
2022/07/21 06:05:13;;;;;;;18.23;9.70;;;;;;;17.71;69.72;97547.62;1849474;76;25696;-76
2022/07/21 06:07:40;;;;;;;17.30;9.58;;;;;;;17.81;69.70;97549.11;1844430;77;27411;-76
2022/07/21 06:10:07;;;;;;;11.78;8.85;;;;;;;17.93;69.55;97550.34;1844719;77;25931;-76
2022/07/21 06:12:34;;;;;;;13.08;8.90;;;;;;;18.04;69.69;97546.65;1844729;77;25673;-77
2022/07/21 06:15:00;;;;;;;14.45;9.58;;;;;;;18.15;69.94;97547.05;1844877;77;26472;-77
2022/07/21 06:17:31;;;;;;;11.83;8.68;;;;;;;18.27;69.93;97546.36;1845047;77;25742;-76
2022/07/21 06:19:55;;;;;;;14.38;8.98;;;;;;;18.40;69.92;97545.67;1844532;76;27427;-76
2022/07/21 06:22:22;;;;;;;14.18;8.68;;;;;;;18.49;69.61;97543.58;1845062;77;25467;-77
2022/07/21 06:24:48;;;;;;;14.58;8.65;;;;;;;18.60;69.35;97543.98;1844897;77;25713;-76
2022/07/21 06:27:15;;;;;;;15.48;8.45;;;;;;;18.72;69.03;97549.86;1844953;76;25656;-77
2022/07/21 06:29:42;;;;;;;12.95;8.60;;;;;;;18.83;68.75;97554.33;1845038;77;25665;-76
2022/07/21 06:32:08;;;;;;;11.57;8.80;;;;;;;18.93;68.56;97552.50;1845033;77;27352;-77
2022/07/21 06:34:35;;;;;;;9.90;7.50;;;;;;;19.04;68.32;97553.41;1844744;77;25445;-77
2022/07/21 06:37:02;;;;;;;18.70;8.20;;;;;;;19.15;68.21;97551.56;1844512;77;25265;-77
2022/07/21 06:39:28;;;;;;;10.13;8.05;;;;;;;19.25;68.06;97548.35;1844984;77;25668;-76
2022/07/21 06:41:55;;;;;;;11.10;7.12;;;;;;;19.35;67.92;97541.57;1844974;77;25673;-78
2022/07/21 06:44:24;;;;;;;11.70;7.03;;;;;;;19.48;67.50;97544.39;1844952;77;27338;-77
2022/07/21 06:46:50;;;;;;;10.82;7.50;;;;;;;19.60;67.06;97540.11;1844820;77;25394;-77
2022/07/21 06:49:16;;;;;;;9.95;7.67;;;;;;;19.71;66.80;97545.37;1845022;77;25708;-76
2022/07/21 06:51:43;;;;;;;9.23;7.00;;;;;;;19.89;66.68;97549.58;1844890;77;25666;-77
2022/07/21 06:54:09;;;;;;;9.30;7.33;;;;;;;20.02;66.76;97546.34;1845045;77;25663;-78
2022/07/21 06:56:36;;;;;;;9.65;6.80;;;;;;;20.18;66.62;97546.37;1845041;77;27351;-76
2022/07/21 06:59:03;;;;;;;10.85;7.40;;;;;;;20.29;66.48;97550.24;1844896;77;25660;-77
2022/07/21 07:01:29;;;;;;;10.55;6.95;;;;;;;20.40;66.05;97547.86;1844966;77;25660;-77
2022/07/21 07:03:56;;;;;;;6.80;6.10;;;;;;;20.55;65.80;97547.05;1845154;77;25674;-76
2022/07/21 07:06:23;;;;;;;12.70;7.30;;;;;;;20.69;65.86;97543.23;1847846;77;25711;-77
2022/07/21 07:08:49;;;;;;;8.93;6.60;;;;;;;20.83;66.13;97544.34;1850478;77;27414;-77
2022/07/21 07:11:16;;;;;;;11.70;6.75;;;;;;;20.96;65.91;97545.17;1850726;77;25698;-76
2022/07/21 07:13:42;;;;;;;8.38;7.22;;;;;;;21.12;65.65;97549.57;1850761;77;25621;-76
2022/07/21 07:16:09;;;;;;;16.45;6.65;;;;;;;21.28;65.25;97546.82;1850816;77;25706;-76
2022/07/21 07:18:37;;;;;;;7.72;6.03;;;;;;;21.40;64.95;97548.72;1850897;77;25629;-77
2022/07/21 07:21:03;;;;;;;7.60;6.60;;;;;;;21.52;64.52;97547.33;1850769;77;27525;-77
2022/07/21 07:23:30;;;;;;;9.05;6.20;;;;;;;21.64;64.10;97540.16;1850635;77;26281;-76
2022/07/21 07:25:56;;;;;;;11.83;6.50;;;;;;;21.77;64.25;97535.45;1850847;77;25731;-77
2022/07/21 07:28:23;;;;;;;7.67;6.60;;;;;;;21.88;64.01;97531.56;1850741;77;25813;-77
2022/07/21 07:30:50;;;;;;;10.70;6.22;;;;;;;22.01;63.87;97542.53;1850772;76;25894;-77
2022/07/21 07:33:16;;;;;;;8.90;6.37;;;;;;;22.13;63.26;97542.20;1850415;77;27398;-77
2022/07/21 07:35:44;;;;;;;6.97;6.33;;;;;;;22.30;62.90;97539.94;1850568;77;25750;-77
2022/07/21 07:38:14;;;;;;;12.33;6.45;;;;;;;22.65;62.43;97536.14;1850481;76;25677;-78
2022/07/21 07:40:41;;;;;;;8.43;6.42;;;;;;;22.65;62.43;97536.14;1796993;78;25713;-78
2022/07/21 07:43:08;;;;;;;10.38;6.10;;;;;;;22.82;61.98;97537.16;1796916;79;26021;-78
2022/07/21 07:45:37;;;;;;;10.40;6.08;;;;;;;22.96;61.95;97539.50;1796850;79;27401;-78
2022/07/21 07:48:04;;;;;;;7.75;6.10;;;;;;;23.10;61.31;97539.67;1732997;81;25964;-77
2022/07/21 07:50:31;;;;;;;7.45;5.65;;;;;;;23.28;60.68;97537.03;1733201;82;25831;-77
2022/07/21 07:52:58;;;;;;;7.28;5.37;;;;;;;23.51;60.26;97534.64;1733539;82;25654;-78
2022/07/21 07:55:24;;;;;;;10.98;5.20;;;;;;;23.84;59.33;97538.41;1733428;82;25809;-78
2022/07/21 07:57:51;;;;;;;6.65;5.80;;;;;;;24.23;58.92;97537.67;1733259;82;27429;-78
2022/07/21 08:00:20;;;;;;;8.25;5.78;;;;;;;24.70;58.38;97544.19;1733147;82;25825;-78
2022/07/21 08:02:47;;;;;;;6.50;4.83;;;;;;;25.21;57.78;97549.75;1733561;82;25766;-78
2022/07/21 08:05:13;;;;;;;9.63;4.62;;;;;;;25.72;56.74;97544.73;1733267;81;26455;-78
2022/07/21 08:07:40;;;;;;;7.30;5.25;;;;;;;26.19;55.74;97541.55;1737914;81;25843;-78
2022/07/21 08:10:11;;;;;;;4.83;4.20;;;;;;;26.67;54.88;97536.93;1738298;82;27381;-78
2022/07/21 08:12:40;;;;;;;7.20;5.08;;;;;;;27.14;54.28;97541.66;1738308;81;25815;-78
2022/07/21 08:15:08;;;;;;;6.55;5.50;;;;;;;27.60;53.72;97544.91;1738303;82;25933;-78
2022/07/21 08:17:35;;;;;;;7.67;4.87;;;;;;;28.08;52.89;97553.84;1738183;82;26579;-79
2022/07/21 08:20:04;;;;;;;5.70;4.78;;;;;;;28.49;51.64;97552.13;1738453;81;26297;-79
2022/07/21 08:22:30;;;;;;;5.85;4.58;;;;;;;28.82;51.10;97540.02;1738350;82;28102;-79
2022/07/21 08:24:57;;;;;;;7.50;4.37;;;;;;;29.06;50.11;97545.64;1738348;80;25719;-78
2022/07/21 08:27:23;;;;;;;6.30;4.30;;;;;;;29.26;49.60;97544.97;1738244;81;25805;-78
2022/07/21 08:29:50;;;;;;;7.80;3.95;;;;;;;29.55;48.54;97545.69;1738198;82;25835;-78
2022/07/21 08:32:17;;;;;;;7.33;3.87;;;;;;;29.87;47.38;97545.66;1738301;82;25788;-79
2022/07/21 08:34:45;;;;;;;6.97;4.58;;;;;;;30.22;47.06;97544.95;1738340;82;27448;-78
2022/07/21 08:37:12;;;;;;;4.78;4.37;;;;;;;30.57;45.97;97542.81;1737842;81;25246;-79
2022/07/21 08:39:39;;;;;;;6.00;4.47;;;;;;;30.74;45.12;97535.16;1738409;81;25785;-79
2022/07/21 08:42:09;;;;;;;7.55;4.45;;;;;;;31.00;45.07;97530.78;1738298;82;25770;-79
2022/07/21 08:44:36;;;;;;;6.85;4.10;;;;;;;31.30;44.22;97530.11;1762317;79;25713;-79
2022/07/21 08:47:04;;;;;;;6.28;4.33;;;;;;;31.61;43.53;97535.21;1803595;79;27439;-79
2022/07/21 08:49:34;;;;;;;7.05;4.50;;;;;;;31.91;42.71;97535.86;1803513;79;25712;-78
2022/07/21 08:52:00;;;;;;;5.62;4.10;;;;;;;32.21;42.40;97532.32;1803618;78;25752;-78
2022/07/21 08:54:27;;;;;;;7.15;3.85;;;;;;;32.49;41.99;97529.02;1803570;79;25724;-77
2022/07/21 08:56:54;;;;;;;7.97;4.42;;;;;;;32.83;41.15;97531.11;1803558;79;25416;-78
2022/07/21 08:59:22;;;;;;;6.22;4.28;;;;;;;33.09;40.50;97527.27;1803481;79;27377;-77
2022/07/21 09:01:49;;;;;;;7.42;4.20;;;;;;;33.38;39.68;97532.33;1803388;79;25670;-79
2022/07/21 09:04:22;;;;;;;6.22;3.87;;;;;;;33.60;39.03;97531.73;1803354;79;25689;-79
2022/07/21 09:07:06;;;;;;;4.95;3.80;;;;;;;33.77;38.65;97526.42;1835896;76;26446;-78
2022/07/21 09:09:35;;;;;;;5.12;3.60;;;;;;;34.01;37.79;97526.26;1866064;76;25623;-78
2022/07/21 09:12:03;;;;;;;6.08;3.87;;;;;;;34.00;37.48;97519.03;1865796;76;27408;-78
2022/07/21 09:14:32;;;;;;;6.85;4.03;;;;;;;34.11;36.80;97516.49;1865620;76;25782;-79
2022/07/21 09:17:03;;;;;;;4.22;3.80;;;;;;;34.33;36.57;97516.67;1865985;76;26415;-78
2022/07/21 09:19:38;;;;;;;8.28;4.10;;;;;;;34.55;35.71;97517.98;1866235;76;25684;-78
2022/07/21 09:22:09;;;;;;;6.00;3.80;;;;;;;34.75;35.40;97509.63;1865962;76;25691;-78
2022/07/21 09:24:40;;;;;;;6.70;3.92;;;;;;;34.99;34.67;97503.19;1861866;76;32489;-78
2022/07/21 09:27:14;;;;;;;8.05;3.60;;;;;;;35.14;34.59;97504.27;1866027;76;25698;-78
2022/07/21 09:29:55;;;;;;;7.65;3.85;;;;;;;35.31;34.12;97495.44;1798426;79;25763;-79
2022/07/21 09:32:34;;;;;;;14.90;4.23;;;;;;;35.34;34.83;97500.32;1798421;79;26410;-79
2022/07/21 09:35:06;;;;;;;9.13;3.80;;;;;;;35.53;34.83;97504.27;1798593;79;25790;-81
2022/07/21 09:37:33;;;;;;;;;;;;;;;35.62;34.26;97502.05;1800972;79;27427;-79
2022/07/21 09:40:06;;;;;;;7.40;3.67;;;;;;;35.68;32.66;97493.53;1798353;79;25641;-79
2022/07/21 09:42:40;;;;;;;7.95;3.75;;;;;;;35.70;33.79;97499.59;1798447;79;25812;-79
2022/07/21 09:45:11;;;;;;;6.05;4.10;;;;;;;35.77;33.38;97494.11;1798662;79;26447;-78
2022/07/21 09:47:39;;;;;;;4.28;3.50;;;;;;;35.83;33.27;97491.23;1798508;79;25947;-79
2022/07/21 09:50:09;;;;;;;5.10;3.45;;;;;;;35.90;32.90;97491.34;1798497;79;27608;-78
2022/07/21 09:52:39;;;;;;;7.97;3.60;;;;;;;35.96;32.75;97483.42;1798426;79;25896;-79
2022/07/21 09:55:12;;;;;;;6.92;3.45;;;;;;;35.97;32.60;97486.45;1798399;79;25348;-78
2022/07/21 09:57:40;;;;;;;5.33;3.50;;;;;;;35.97;32.37;97489.27;1798380;79;25751;-78
2022/07/21 10:00:15;;;;;;;5.62;3.60;;;;;;;35.98;32.26;97487.48;1798501;79;25483;-79
2022/07/21 10:02:44;;;;;;;4.08;3.40;;;;;;;36.01;32.02;97483.09;1795192;79;28255;-78
2022/07/21 10:05:15;;;;;;;6.90;3.65;;;;;;;36.01;31.91;97488.11;1798323;79;25753;-78
2022/07/21 10:07:44;;;;;;;;;;;;;;;36.04;31.76;97487.96;1798577;79;25800;-78
2022/07/21 10:10:12;;;;;;;5.45;3.30;;;;;;;35.95;31.32;97484.02;1795709;79;26454;-78
2022/07/21 10:12:39;;;;;;;7.70;3.60;;;;;;;35.84;31.79;97482.21;1795688;79;25781;-79
2022/07/21 10:15:07;;;;;;;5.30;3.40;;;;;;;35.88;31.87;97482.47;1795788;79;27543;-78
2022/07/21 10:17:34;;;;;;;6.28;4.12;;;;;;;35.96;31.64;97479.21;1795490;79;25287;-78
2022/07/21 10:20:16;;;;;;;6.35;3.65;;;;;;;36.03;31.56;97484.34;1795671;79;25907;-78
2022/07/21 10:23:16;;;;;;;5.28;3.25;;;;;;;36.05;31.45;97488.19;1795702;79;26484;-78
2022/07/21 10:25:43;;;;;;;3.85;3.45;;;;;;;35.90;30.79;97480.11;1713114;81;25806;-78
2022/07/21 10:28:24;;;;;;;4.87;3.45;;;;;;;35.89;31.21;97485.50;1762486;80;27223;-78
2022/07/21 10:30:56;;;;;;;7.15;3.92;;;;;;;35.89;30.81;97475.67;1762535;80;25766;-78
2022/07/21 10:33:45;;;;;;;8.23;3.52;;;;;;;35.93;30.78;97477.95;1762387;80;25792;-77
2022/07/21 10:36:33;;;;;;;9.50;3.72;;;;;;;35.98;31.10;97478.25;1762589;81;25678;-78
2022/07/21 10:39:16;;;;;;;4.78;3.92;;;;;;;35.88;30.31;97476.86;1762584;80;25745;-78
2022/07/21 10:41:54;;;;;;;6.70;4.28;;;;;;;35.92;30.77;97477.73;1758766;81;27439;-78
2022/07/21 10:44:35;;;;;;;6.72;3.62;;;;;;;35.92;30.37;97479.14;1732265;82;25869;-78
2022/07/21 10:47:16;;;;;;;6.67;3.72;;;;;;;35.77;29.92;97477.86;1732622;82;25761;-78
2022/07/21 10:50:00;;;;;;;6.17;3.70;;;;;;;35.47;30.22;97477.70;1732439;82;26555;-78
2022/07/21 10:52:45;;;;;;;7.45;4.12;;;;;;;35.59;30.88;97472.72;1732245;82;25895;-78
2022/07/21 10:55:23;;;;;;;6.05;4.17;;;;;;;35.67;30.80;97473.65;1728554;81;27437;-78
2022/07/21 10:57:47;;;;;;;9.08;4.15;;;;;;;35.74;30.56;97473.83;1723318;83;25804;-78
2022/07/21 11:00:27;;;;;;;6.10;3.70;;;;;;;35.77;30.01;97469.44;1717305;81;26057;-78
2022/07/21 11:02:58;;;;;;;4.92;4.08;;;;;;;35.79;31.03;97476.89;1717266;81;25784;-77
2022/07/21 11:05:29;;;;;;;6.65;3.80;;;;;;;35.87;30.89;97473.83;1692847;84;25695;-77
2022/07/21 11:08:22;;;;;;;8.45;4.35;;;;;;;35.98;31.08;97467.01;1680721;84;26864;-78
2022/07/21 11:10:52;;;;;;;5.92;4.05;;;;;;;36.08;31.11;97464.96;1674717;85;25742;-77
2022/07/21 11:13:25;;;;;;;7.05;3.80;;;;;;;36.14;30.92;97471.87;1677471;85;25760;-77
2022/07/21 11:15:57;;;;;;;6.17;3.70;;;;;;;36.19;31.20;97472.16;1677279;85;25800;-77
2022/07/21 11:18:30;;;;;;;7.75;4.05;;;;;;;36.23;31.14;97461.20;1677120;85;25723;-77
2022/07/21 11:21:14;;;;;;;4.85;3.65;;;;;;;36.24;31.36;97461.41;1682932;84;27471;-77
2022/07/21 11:23:48;;;;;;;6.40;3.50;;;;;;;36.30;31.17;97456.30;1702667;83;25290;-77
2022/07/21 11:26:21;;;;;;;7.05;3.87;;;;;;;36.23;30.54;97459.79;1669664;85;25856;-77
2022/07/21 11:29:04;;;;;;;10.48;4.12;;;;;;;36.22;30.79;97455.98;1666257;85;25846;-77
2022/07/21 11:31:31;;;;;;;6.15;4.30;;;;;;;36.19;30.43;97458.10;1668911;85;25801;-77
2022/07/21 11:33:58;;;;;;;6.75;4.47;;;;;;;36.15;30.37;97449.61;1669620;85;28218;-77
2022/07/21 11:36:31;;;;;;;6.85;4.42;;;;;;;36.16;31.01;97450.42;1669694;85;25664;-76
2022/07/21 11:39:05;;;;;;;5.62;4.30;;;;;;;36.17;30.71;97447.23;1659068;85;25829;-76
2022/07/21 11:41:35;;;;;;;6.78;4.20;;;;;;;36.07;30.93;97450.10;1592990;89;25883;-76